Terminal Aerodrome Forecast
Issued by NWS

Home | Current Version | Previous Version | Text Only | Print | Product List | Glossary On
Versions: 1 2 3 4 5 6 7 8 9 10 11 12 13 14 15 16 17 18 19
000
FTUS42 KJAX 221200 AAA
TAFCRG
TAF AMD
KCRG 221257Z 2213/2312 16010KT P6SM VCSH SCT007 BKN040
      TEMPO 2214/2217 5SM -RA BR BKN007
     FM221700 18006KT 6SM SHRA BR OVC008
     FM222300 18004KT 4SM BR VCSH OVC004=

USA.gov is the U.S. government's official web portal to all federal, state and local government web resources and services.